sensor_id;sensor_type;location;lat;lon;timestamp;P1;durP1;ratioP1;P2;durP2;ratioP2
70322;SDS011;57735;56.264;43.898;2023-07-09T00:02:27;31.35;;;18.67;;
70322;SDS011;57735;56.264;43.898;2023-07-09T00:05:01;30.65;;;18.80;;
70322;SDS011;57735;56.264;43.898;2023-07-09T00:07:32;32.25;;;18.65;;
70322;SDS011;57735;56.264;43.898;2023-07-09T00:10:05;37.00;;;20.48;;
70322;SDS011;57735;56.264;43.898;2023-07-09T00:12:56;33.85;;;20.27;;
70322;SDS011;57735;56.264;43.898;2023-07-09T00:15:27;34.53;;;19.88;;
70322;SDS011;57735;56.264;43.898;2023-07-09T00:17:58;29.10;;;18.42;;
70322;SDS011;57735;56.264;43.898;2023-07-09T00:20:30;31.23;;;19.58;;
70322;SDS011;57735;56.264;43.898;2023-07-09T00:23:04;33.25;;;19.25;;
70322;SDS011;57735;56.264;43.898;2023-07-09T00:25:35;35.53;;;21.30;;
70322;SDS011;57735;56.264;43.898;2023-07-09T00:28:07;31.25;;;19.45;;
70322;SDS011;57735;56.264;43.898;2023-07-09T00:30:45;34.60;;;20.45;;
70322;SDS011;57735;56.264;43.898;2023-07-09T00:33:16;32.65;;;20.13;;
70322;SDS011;57735;56.264;43.898;2023-07-09T00:35:49;34.72;;;20.20;;
70322;SDS011;57735;56.264;43.898;2023-07-09T00:38:21;33.30;;;19.90;;
70322;SDS011;57735;56.264;43.898;2023-07-09T00:41:13;28.80;;;17.08;;
70322;SDS011;57735;56.264;43.898;2023-07-09T00:43:48;29.38;;;18.02;;
70322;SDS011;57735;56.264;43.898;2023-07-09T00:48:59;29.63;;;16.80;;
70322;SDS011;57735;56.264;43.898;2023-07-09T00:51:40;25.20;;;16.15;;
70322;SDS011;57735;56.264;43.898;2023-07-09T00:54:22;29.05;;;17.77;;
70322;SDS011;57735;56.264;43.898;2023-07-09T00:57:02;28.58;;;18.05;;
70322;SDS011;57735;56.264;43.898;2023-07-09T01:00:00;26.02;;;16.75;;
70322;SDS011;57735;56.264;43.898;2023-07-09T01:02:45;26.70;;;16.58;;
70322;SDS011;57735;56.264;43.898;2023-07-09T01:07:50;25.30;;;16.15;;
70322;SDS011;57735;56.264;43.898;2023-07-09T01:10:21;26.35;;;17.42;;
70322;SDS011;57735;56.264;43.898;2023-07-09T01:12:54;24.35;;;16.00;;
70322;SDS011;57735;56.264;43.898;2023-07-09T01:15:28;28.60;;;17.75;;
70322;SDS011;57735;56.264;43.898;2023-07-09T01:17:59;26.98;;;17.98;;
70322;SDS011;57735;56.264;43.898;2023-07-09T01:20:30;27.30;;;17.05;;
70322;SDS011;57735;56.264;43.898;2023-07-09T01:23:01;26.42;;;17.15;;
70322;SDS011;57735;56.264;43.898;2023-07-09T01:25:32;27.67;;;17.98;;
70322;SDS011;57735;56.264;43.898;2023-07-09T01:28:03;30.52;;;16.70;;
70322;SDS011;57735;56.264;43.898;2023-07-09T01:30:37;31.83;;;18.63;;
70322;SDS011;57735;56.264;43.898;2023-07-09T01:33:10;29.40;;;17.27;;
70322;SDS011;57735;56.264;43.898;2023-07-09T01:35:43;29.60;;;18.02;;
70322;SDS011;57735;56.264;43.898;2023-07-09T01:38:14;28.77;;;18.00;;
70322;SDS011;57735;56.264;43.898;2023-07-09T01:40:46;31.85;;;18.63;;
70322;SDS011;57735;56.264;43.898;2023-07-09T01:43:17;31.30;;;18.83;;
70322;SDS011;57735;56.264;43.898;2023-07-09T01:45:48;30.92;;;19.73;;
70322;SDS011;57735;56.264;43.898;2023-07-09T01:48:20;31.92;;;20.10;;
70322;SDS011;57735;56.264;43.898;2023-07-09T01:50:51;32.88;;;18.77;;
70322;SDS011;57735;56.264;43.898;2023-07-09T01:53:24;30.35;;;17.65;;
70322;SDS011;57735;56.264;43.898;2023-07-09T01:55:57;36.63;;;19.60;;
70322;SDS011;57735;56.264;43.898;2023-07-09T01:58:28;33.60;;;19.17;;
70322;SDS011;57735;56.264;43.898;2023-07-09T02:01:01;33.08;;;18.10;;
70322;SDS011;57735;56.264;43.898;2023-07-09T02:03:35;30.95;;;18.33;;
70322;SDS011;57735;56.264;43.898;2023-07-09T02:06:06;33.33;;;18.67;;
70322;SDS011;57735;56.264;43.898;2023-07-09T02:08:40;29.58;;;18.27;;
70322;SDS011;57735;56.264;43.898;2023-07-09T02:11:11;33.88;;;19.08;;
70322;SDS011;57735;56.264;43.898;2023-07-09T02:13:42;36.58;;;19.27;;
70322;SDS011;57735;56.264;43.898;2023-07-09T02:16:12;32.25;;;18.77;;
70322;SDS011;57735;56.264;43.898;2023-07-09T02:18:44;29.60;;;17.55;;
70322;SDS011;57735;56.264;43.898;2023-07-09T02:21:14;31.55;;;17.50;;
70322;SDS011;57735;56.264;43.898;2023-07-09T02:23:45;31.70;;;18.38;;
70322;SDS011;57735;56.264;43.898;2023-07-09T02:26:16;25.90;;;15.95;;
70322;SDS011;57735;56.264;43.898;2023-07-09T02:28:47;31.40;;;17.50;;
70322;SDS011;57735;56.264;43.898;2023-07-09T02:31:17;29.60;;;18.05;;
70322;SDS011;57735;56.264;43.898;2023-07-09T02:33:49;28.17;;;17.33;;
70322;SDS011;57735;56.264;43.898;2023-07-09T02:36:23;32.28;;;18.90;;
70322;SDS011;57735;56.264;43.898;2023-07-09T02:38:54;24.98;;;16.65;;
70322;SDS011;57735;56.264;43.898;2023-07-09T02:41:25;29.77;;;16.88;;
70322;SDS011;57735;56.264;43.898;2023-07-09T02:43:58;31.60;;;17.27;;
70322;SDS011;57735;56.264;43.898;2023-07-09T02:46:29;29.63;;;17.45;;
70322;SDS011;57735;56.264;43.898;2023-07-09T02:49:00;25.92;;;16.98;;
70322;SDS011;57735;56.264;43.898;2023-07-09T02:51:33;26.45;;;16.33;;
70322;SDS011;57735;56.264;43.898;2023-07-09T02:54:04;27.30;;;16.15;;
70322;SDS011;57735;56.264;43.898;2023-07-09T02:56:35;26.55;;;16.92;;
70322;SDS011;57735;56.264;43.898;2023-07-09T02:59:06;24.35;;;15.60;;
70322;SDS011;57735;56.264;43.898;2023-07-09T03:01:37;26.30;;;16.20;;
70322;SDS011;57735;56.264;43.898;2023-07-09T03:04:08;25.75;;;15.88;;
70322;SDS011;57735;56.264;43.898;2023-07-09T03:06:39;25.05;;;16.10;;
70322;SDS011;57735;56.264;43.898;2023-07-09T03:09:10;26.23;;;16.63;;
70322;SDS011;57735;56.264;43.898;2023-07-09T03:11:43;24.88;;;15.68;;
70322;SDS011;57735;56.264;43.898;2023-07-09T03:14:20;23.23;;;15.23;;
70322;SDS011;57735;56.264;43.898;2023-07-09T03:16:51;24.88;;;15.18;;
70322;SDS011;57735;56.264;43.898;2023-07-09T03:19:22;24.48;;;15.48;;
70322;SDS011;57735;56.264;43.898;2023-07-09T03:21:53;23.52;;;14.25;;
70322;SDS011;57735;56.264;43.898;2023-07-09T03:24:24;26.45;;;15.63;;
70322;SDS011;57735;56.264;43.898;2023-07-09T03:26:55;21.92;;;14.65;;
70322;SDS011;57735;56.264;43.898;2023-07-09T03:29:27;22.40;;;14.85;;
70322;SDS011;57735;56.264;43.898;2023-07-09T03:31:58;24.60;;;15.77;;
70322;SDS011;57735;56.264;43.898;2023-07-09T03:34:29;21.77;;;14.93;;
70322;SDS011;57735;56.264;43.898;2023-07-09T03:36:59;21.92;;;14.35;;
70322;SDS011;57735;56.264;43.898;2023-07-09T03:39:30;19.83;;;13.60;;
70322;SDS011;57735;56.264;43.898;2023-07-09T03:42:01;23.08;;;13.77;;
70322;SDS011;57735;56.264;43.898;2023-07-09T03:44:32;22.20;;;13.90;;
70322;SDS011;57735;56.264;43.898;2023-07-09T03:47:03;20.10;;;13.73;;
70322;SDS011;57735;56.264;43.898;2023-07-09T03:49:37;20.13;;;13.47;;
70322;SDS011;57735;56.264;43.898;2023-07-09T03:52:09;21.00;;;14.13;;
70322;SDS011;57735;56.264;43.898;2023-07-09T03:54:40;20.27;;;14.45;;
70322;SDS011;57735;56.264;43.898;2023-07-09T03:57:10;21.02;;;14.35;;
70322;SDS011;57735;56.264;43.898;2023-07-09T03:59:41;19.98;;;14.05;;
70322;SDS011;57735;56.264;43.898;2023-07-09T04:02:12;22.83;;;13.48;;
70322;SDS011;57735;56.264;43.898;2023-07-09T04:04:45;20.35;;;14.40;;
70322;SDS011;57735;56.264;43.898;2023-07-09T04:07:19;22.75;;;14.85;;
70322;SDS011;57735;56.264;43.898;2023-07-09T04:09:49;21.85;;;14.52;;
70322;SDS011;57735;56.264;43.898;2023-07-09T04:12:20;21.67;;;14.43;;
70322;SDS011;57735;56.264;43.898;2023-07-09T04:14:57;20.23;;;13.98;;
70322;SDS011;57735;56.264;43.898;2023-07-09T04:17:28;20.75;;;13.45;;
70322;SDS011;57735;56.264;43.898;2023-07-09T04:19:59;19.67;;;13.20;;
70322;SDS011;57735;56.264;43.898;2023-07-09T04:22:30;18.27;;;12.32;;
70322;SDS011;57735;56.264;43.898;2023-07-09T04:25:01;18.75;;;13.48;;
70322;SDS011;57735;56.264;43.898;2023-07-09T04:30:10;16.85;;;12.00;;
70322;SDS011;57735;56.264;43.898;2023-07-09T04:32:43;18.45;;;11.90;;
70322;SDS011;57735;56.264;43.898;2023-07-09T04:35:14;17.17;;;11.40;;
70322;SDS011;57735;56.264;43.898;2023-07-09T04:37:45;20.00;;;11.93;;
70322;SDS011;57735;56.264;43.898;2023-07-09T04:40:17;20.17;;;12.30;;
70322;SDS011;57735;56.264;43.898;2023-07-09T04:42:48;19.52;;;12.55;;
70322;SDS011;57735;56.264;43.898;2023-07-09T04:45:19;17.45;;;11.75;;
70322;SDS011;57735;56.264;43.898;2023-07-09T04:47:50;18.83;;;11.48;;
70322;SDS011;57735;56.264;43.898;2023-07-09T04:50:22;18.77;;;13.10;;
70322;SDS011;57735;56.264;43.898;2023-07-09T04:52:53;16.73;;;12.73;;
70322;SDS011;57735;56.264;43.898;2023-07-09T04:55:24;16.35;;;12.15;;
70322;SDS011;57735;56.264;43.898;2023-07-09T04:57:56;18.60;;;12.27;;
70322;SDS011;57735;56.264;43.898;2023-07-09T05:00:27;18.30;;;12.45;;
70322;SDS011;57735;56.264;43.898;2023-07-09T05:02:58;20.17;;;12.52;;
70322;SDS011;57735;56.264;43.898;2023-07-09T05:05:29;18.30;;;12.57;;
70322;SDS011;57735;56.264;43.898;2023-07-09T05:08:02;19.27;;;11.60;;
70322;SDS011;57735;56.264;43.898;2023-07-09T05:10:33;19.48;;;13.43;;
70322;SDS011;57735;56.264;43.898;2023-07-09T05:13:03;18.63;;;13.15;;
70322;SDS011;57735;56.264;43.898;2023-07-09T05:15:34;20.33;;;12.82;;
70322;SDS011;57735;56.264;43.898;2023-07-09T05:18:05;18.05;;;11.70;;
70322;SDS011;57735;56.264;43.898;2023-07-09T05:20:36;19.42;;;12.32;;
70322;SDS011;57735;56.264;43.898;2023-07-09T05:23:08;19.17;;;12.07;;
70322;SDS011;57735;56.264;43.898;2023-07-09T05:25:40;24.58;;;13.68;;
70322;SDS011;57735;56.264;43.898;2023-07-09T05:28:11;21.98;;;14.18;;
70322;SDS011;57735;56.264;43.898;2023-07-09T05:30:42;21.75;;;13.23;;
70322;SDS011;57735;56.264;43.898;2023-07-09T05:33:13;19.70;;;13.00;;
70322;SDS011;57735;56.264;43.898;2023-07-09T05:35:44;23.05;;;13.55;;
70322;SDS011;57735;56.264;43.898;2023-07-09T05:38:15;20.95;;;13.60;;
70322;SDS011;57735;56.264;43.898;2023-07-09T05:40:46;23.48;;;14.48;;
70322;SDS011;57735;56.264;43.898;2023-07-09T05:43:28;25.55;;;14.98;;
70322;SDS011;57735;56.264;43.898;2023-07-09T05:46:04;26.05;;;15.73;;
70322;SDS011;57735;56.264;43.898;2023-07-09T05:48:35;21.48;;;14.05;;
70322;SDS011;57735;56.264;43.898;2023-07-09T05:51:06;24.50;;;13.50;;
70322;SDS011;57735;56.264;43.898;2023-07-09T05:53:37;22.88;;;13.90;;
70322;SDS011;57735;56.264;43.898;2023-07-09T05:56:08;22.05;;;15.10;;
70322;SDS011;57735;56.264;43.898;2023-07-09T05:58:39;24.23;;;14.30;;
70322;SDS011;57735;56.264;43.898;2023-07-09T06:01:10;22.30;;;14.00;;
70322;SDS011;57735;56.264;43.898;2023-07-09T06:03:40;22.65;;;15.18;;
70322;SDS011;57735;56.264;43.898;2023-07-09T06:06:13;19.70;;;13.48;;
70322;SDS011;57735;56.264;43.898;2023-07-09T06:08:43;23.30;;;14.38;;
70322;SDS011;57735;56.264;43.898;2023-07-09T06:11:14;25.92;;;15.48;;
70322;SDS011;57735;56.264;43.898;2023-07-09T06:13:46;23.08;;;14.75;;
70322;SDS011;57735;56.264;43.898;2023-07-09T06:16:20;24.10;;;14.95;;
70322;SDS011;57735;56.264;43.898;2023-07-09T06:18:51;23.63;;;14.57;;
70322;SDS011;57735;56.264;43.898;2023-07-09T06:21:22;25.98;;;14.95;;
70322;SDS011;57735;56.264;43.898;2023-07-09T06:23:53;20.98;;;13.15;;
70322;SDS011;57735;56.264;43.898;2023-07-09T06:26:26;18.55;;;12.90;;
70322;SDS011;57735;56.264;43.898;2023-07-09T06:28:57;21.45;;;14.18;;
70322;SDS011;57735;56.264;43.898;2023-07-09T06:31:28;21.42;;;14.68;;
70322;SDS011;57735;56.264;43.898;2023-07-09T06:33:59;20.02;;;13.23;;
70322;SDS011;57735;56.264;43.898;2023-07-09T06:36:30;20.08;;;13.63;;
70322;SDS011;57735;56.264;43.898;2023-07-09T06:39:03;23.27;;;13.23;;
70322;SDS011;57735;56.264;43.898;2023-07-09T06:41:37;18.67;;;13.27;;
70322;SDS011;57735;56.264;43.898;2023-07-09T06:44:09;18.80;;;12.77;;
70322;SDS011;57735;56.264;43.898;2023-07-09T06:46:40;18.83;;;13.10;;
70322;SDS011;57735;56.264;43.898;2023-07-09T06:49:10;20.25;;;12.82;;
70322;SDS011;57735;56.264;43.898;2023-07-09T06:51:41;20.02;;;12.65;;
70322;SDS011;57735;56.264;43.898;2023-07-09T06:54:15;20.05;;;12.55;;
70322;SDS011;57735;56.264;43.898;2023-07-09T06:56:46;18.75;;;12.13;;
70322;SDS011;57735;56.264;43.898;2023-07-09T06:59:17;16.67;;;11.73;;
70322;SDS011;57735;56.264;43.898;2023-07-09T07:01:48;16.25;;;11.43;;
70322;SDS011;57735;56.264;43.898;2023-07-09T07:04:19;19.38;;;12.30;;
70322;SDS011;57735;56.264;43.898;2023-07-09T07:06:49;21.70;;;13.80;;
70322;SDS011;57735;56.264;43.898;2023-07-09T07:09:20;19.55;;;13.20;;
70322;SDS011;57735;56.264;43.898;2023-07-09T07:11:51;20.98;;;13.50;;
70322;SDS011;57735;56.264;43.898;2023-07-09T07:14:22;20.88;;;13.20;;
70322;SDS011;57735;56.264;43.898;2023-07-09T07:16:55;23.88;;;14.35;;
70322;SDS011;57735;56.264;43.898;2023-07-09T07:19:33;27.60;;;15.45;;
70322;SDS011;57735;56.264;43.898;2023-07-09T07:22:03;20.83;;;13.55;;
70322;SDS011;57735;56.264;43.898;2023-07-09T07:24:34;24.38;;;15.02;;
70322;SDS011;57735;56.264;43.898;2023-07-09T07:27:05;22.60;;;14.90;;
70322;SDS011;57735;56.264;43.898;2023-07-09T07:29:36;24.75;;;14.93;;
70322;SDS011;57735;56.264;43.898;2023-07-09T07:32:07;22.23;;;15.30;;
70322;SDS011;57735;56.264;43.898;2023-07-09T07:34:41;20.27;;;14.55;;
70322;SDS011;57735;56.264;43.898;2023-07-09T07:37:12;23.50;;;14.85;;
70322;SDS011;57735;56.264;43.898;2023-07-09T07:39:43;25.55;;;15.88;;
70322;SDS011;57735;56.264;43.898;2023-07-09T07:42:16;21.55;;;14.93;;
70322;SDS011;57735;56.264;43.898;2023-07-09T07:44:47;25.10;;;15.73;;
70322;SDS011;57735;56.264;43.898;2023-07-09T07:47:18;22.25;;;15.52;;
70322;SDS011;57735;56.264;43.898;2023-07-09T07:49:49;23.85;;;16.10;;
70322;SDS011;57735;56.264;43.898;2023-07-09T07:52:20;23.25;;;15.65;;
70322;SDS011;57735;56.264;43.898;2023-07-09T07:54:51;24.35;;;16.25;;
70322;SDS011;57735;56.264;43.898;2023-07-09T07:57:24;21.35;;;15.98;;
70322;SDS011;57735;56.264;43.898;2023-07-09T07:59:55;22.65;;;15.27;;
70322;SDS011;57735;56.264;43.898;2023-07-09T08:02:26;21.40;;;15.77;;
70322;SDS011;57735;56.264;43.898;2023-07-09T08:04:57;22.58;;;15.80;;
70322;SDS011;57735;56.264;43.898;2023-07-09T08:07:28;28.63;;;16.60;;
70322;SDS011;57735;56.264;43.898;2023-07-09T08:09:59;22.33;;;16.17;;
70322;SDS011;57735;56.264;43.898;2023-07-09T08:12:29;28.05;;;16.85;;
70322;SDS011;57735;56.264;43.898;2023-07-09T08:15:00;23.20;;;15.68;;
70322;SDS011;57735;56.264;43.898;2023-07-09T08:17:31;26.88;;;16.40;;
70322;SDS011;57735;56.264;43.898;2023-07-09T08:20:02;25.75;;;15.85;;
70322;SDS011;57735;56.264;43.898;2023-07-09T08:22:35;27.02;;;16.52;;
70322;SDS011;57735;56.264;43.898;2023-07-09T08:25:06;25.65;;;16.80;;
70322;SDS011;57735;56.264;43.898;2023-07-09T08:27:37;32.70;;;17.67;;
70322;SDS011;57735;56.264;43.898;2023-07-09T08:30:08;27.20;;;17.25;;
70322;SDS011;57735;56.264;43.898;2023-07-09T08:32:40;28.25;;;17.33;;
70322;SDS011;57735;56.264;43.898;2023-07-09T08:35:16;25.80;;;17.58;;
70322;SDS011;57735;56.264;43.898;2023-07-09T08:37:49;32.25;;;18.77;;
70322;SDS011;57735;56.264;43.898;2023-07-09T08:40:20;36.40;;;20.38;;
70322;SDS011;57735;56.264;43.898;2023-07-09T08:42:52;39.40;;;20.85;;
70322;SDS011;57735;56.264;43.898;2023-07-09T08:45:51;36.75;;;20.15;;
70322;SDS011;57735;56.264;43.898;2023-07-09T08:48:39;34.60;;;19.58;;
70322;SDS011;57735;56.264;43.898;2023-07-09T08:51:24;29.60;;;18.67;;
70322;SDS011;57735;56.264;43.898;2023-07-09T08:54:00;30.88;;;19.58;;
70322;SDS011;57735;56.264;43.898;2023-07-09T08:56:32;27.55;;;18.67;;
70322;SDS011;57735;56.264;43.898;2023-07-09T08:59:04;31.17;;;19.35;;
70322;SDS011;57735;56.264;43.898;2023-07-09T09:01:36;40.05;;;19.50;;
70322;SDS011;57735;56.264;43.898;2023-07-09T09:04:29;35.47;;;19.63;;
70322;SDS011;57735;56.264;43.898;2023-07-09T09:09:45;38.72;;;21.25;;
70322;SDS011;57735;56.264;43.898;2023-07-09T09:12:29;37.47;;;20.17;;
70322;SDS011;57735;56.264;43.898;2023-07-09T09:15:13;35.88;;;20.92;;
70322;SDS011;57735;56.264;43.898;2023-07-09T09:17:48;47.15;;;23.58;;
70322;SDS011;57735;56.264;43.898;2023-07-09T09:20:24;46.38;;;23.58;;
70322;SDS011;57735;56.264;43.898;2023-07-09T09:25:40;42.95;;;23.38;;
70322;SDS011;57735;56.264;43.898;2023-07-09T09:28:14;47.10;;;22.95;;
70322;SDS011;57735;56.264;43.898;2023-07-09T09:30:48;34.63;;;20.17;;
70322;SDS011;57735;56.264;43.898;2023-07-09T09:33:18;39.28;;;22.00;;
70322;SDS011;57735;56.264;43.898;2023-07-09T09:35:49;45.15;;;23.95;;
70322;SDS011;57735;56.264;43.898;2023-07-09T09:38:36;45.63;;;24.45;;
70322;SDS011;57735;56.264;43.898;2023-07-09T09:41:12;45.20;;;24.13;;
70322;SDS011;57735;56.264;43.898;2023-07-09T09:43:45;47.88;;;24.48;;
70322;SDS011;57735;56.264;43.898;2023-07-09T09:46:17;40.85;;;23.85;;
70322;SDS011;57735;56.264;43.898;2023-07-09T09:48:51;32.65;;;21.38;;
70322;SDS011;57735;56.264;43.898;2023-07-09T09:51:24;33.55;;;20.80;;
70322;SDS011;57735;56.264;43.898;2023-07-09T09:53:57;30.02;;;18.02;;
70322;SDS011;57735;56.264;43.898;2023-07-09T09:56:33;40.13;;;21.40;;
70322;SDS011;57735;56.264;43.898;2023-07-09T09:59:13;29.55;;;17.23;;
70322;SDS011;57735;56.264;43.898;2023-07-09T10:01:56;29.42;;;17.75;;
70322;SDS011;57735;56.264;43.898;2023-07-09T10:04:31;32.53;;;18.48;;
70322;SDS011;57735;56.264;43.898;2023-07-09T10:07:03;27.65;;;17.75;;
70322;SDS011;57735;56.264;43.898;2023-07-09T10:15:27;31.80;;;19.48;;
70322;SDS011;57735;56.264;43.898;2023-07-09T10:18:15;29.27;;;17.88;;
70322;SDS011;57735;56.264;43.898;2023-07-09T10:20:58;30.42;;;18.48;;
70322;SDS011;57735;56.264;43.898;2023-07-09T10:23:44;24.27;;;16.45;;
70322;SDS011;57735;56.264;43.898;2023-07-09T10:26:30;29.50;;;16.15;;
70322;SDS011;57735;56.264;43.898;2023-07-09T10:29:24;24.17;;;15.98;;
70322;SDS011;57735;56.264;43.898;2023-07-09T10:34:57;23.50;;;15.10;;
70322;SDS011;57735;56.264;43.898;2023-07-09T10:40:23;25.83;;;16.27;;
70322;SDS011;57735;56.264;43.898;2023-07-09T10:43:01;28.63;;;18.10;;
70322;SDS011;57735;56.264;43.898;2023-07-09T10:45:39;31.43;;;19.83;;
70322;SDS011;57735;56.264;43.898;2023-07-09T10:51:01;23.17;;;15.02;;
70322;SDS011;57735;56.264;43.898;2023-07-09T10:53:55;26.92;;;16.77;;
70322;SDS011;57735;56.264;43.898;2023-07-09T10:56:27;23.30;;;15.05;;
70322;SDS011;57735;56.264;43.898;2023-07-09T11:01:39;24.15;;;15.38;;
70322;SDS011;57735;56.264;43.898;2023-07-09T11:04:35;26.10;;;16.17;;
70322;SDS011;57735;56.264;43.898;2023-07-09T11:07:11;28.95;;;16.73;;
70322;SDS011;57735;56.264;43.898;2023-07-09T11:09:45;27.08;;;16.80;;
70322;SDS011;57735;56.264;43.898;2023-07-09T11:15:14;27.83;;;16.98;;
70322;SDS011;57735;56.264;43.898;2023-07-09T11:17:51;23.13;;;15.23;;
70322;SDS011;57735;56.264;43.898;2023-07-09T11:20:41;26.60;;;15.43;;
70322;SDS011;57735;56.264;43.898;2023-07-09T11:23:18;28.23;;;16.13;;
70322;SDS011;57735;56.264;43.898;2023-07-09T11:26:01;23.60;;;15.77;;
70322;SDS011;57735;56.264;43.898;2023-07-09T11:28:41;25.27;;;16.20;;
70322;SDS011;57735;56.264;43.898;2023-07-09T11:39:29;22.50;;;14.60;;
70322;SDS011;57735;56.264;43.898;2023-07-09T11:42:54;25.95;;;15.40;;
70322;SDS011;57735;56.264;43.898;2023-07-09T11:45:22;21.38;;;13.60;;
70322;SDS011;57735;56.264;43.898;2023-07-09T11:48:01;21.35;;;12.57;;
70322;SDS011;57735;56.264;43.898;2023-07-09T11:50:42;22.60;;;14.55;;
70322;SDS011;57735;56.264;43.898;2023-07-09T11:56:21;25.45;;;14.77;;
70322;SDS011;57735;56.264;43.898;2023-07-09T11:58:57;25.17;;;15.70;;
70322;SDS011;57735;56.264;43.898;2023-07-09T12:01:36;25.02;;;16.05;;
70322;SDS011;57735;56.264;43.898;2023-07-09T12:04:17;21.17;;;14.23;;
70322;SDS011;57735;56.264;43.898;2023-07-09T12:06:51;22.58;;;14.18;;
70322;SDS011;57735;56.264;43.898;2023-07-09T12:09:32;26.52;;;15.75;;
70322;SDS011;57735;56.264;43.898;2023-07-09T12:12:21;23.63;;;15.65;;
70322;SDS011;57735;56.264;43.898;2023-07-09T12:14:54;21.42;;;13.68;;
70322;SDS011;57735;56.264;43.898;2023-07-09T12:17:28;19.98;;;13.48;;
70322;SDS011;57735;56.264;43.898;2023-07-09T12:20:00;17.02;;;11.50;;
70322;SDS011;57735;56.264;43.898;2023-07-09T12:22:33;19.13;;;12.55;;
70322;SDS011;57735;56.264;43.898;2023-07-09T12:25:05;19.50;;;13.30;;
70322;SDS011;57735;56.264;43.898;2023-07-09T12:30:33;20.25;;;12.98;;
70322;SDS011;57735;56.264;43.898;2023-07-09T12:33:06;18.92;;;10.60;;
70322;SDS011;57735;56.264;43.898;2023-07-09T12:35:39;13.90;;;8.95;;
70322;SDS011;57735;56.264;43.898;2023-07-09T12:38:19;14.93;;;10.35;;
70322;SDS011;57735;56.264;43.898;2023-07-09T12:40:55;16.77;;;10.65;;
70322;SDS011;57735;56.264;43.898;2023-07-09T12:43:30;17.45;;;12.00;;
70322;SDS011;57735;56.264;43.898;2023-07-09T12:46:02;23.80;;;14.48;;
70322;SDS011;57735;56.264;43.898;2023-07-09T12:48:33;22.60;;;15.70;;
70322;SDS011;57735;56.264;43.898;2023-07-09T12:51:06;31.38;;;21.33;;
70322;SDS011;57735;56.264;43.898;2023-07-09T12:53:38;29.73;;;17.75;;
70322;SDS011;57735;56.264;43.898;2023-07-09T12:56:13;22.48;;;14.27;;
70322;SDS011;57735;56.264;43.898;2023-07-09T12:58:47;19.58;;;12.02;;
70322;SDS011;57735;56.264;43.898;2023-07-09T13:01:20;16.58;;;11.57;;
70322;SDS011;57735;56.264;43.898;2023-07-09T13:03:56;20.45;;;13.40;;
70322;SDS011;57735;56.264;43.898;2023-07-09T13:06:28;20.40;;;13.63;;
70322;SDS011;57735;56.264;43.898;2023-07-09T13:09:19;19.55;;;12.90;;
70322;SDS011;57735;56.264;43.898;2023-07-09T13:11:54;19.70;;;11.52;;
70322;SDS011;57735;56.264;43.898;2023-07-09T13:14:27;20.10;;;12.25;;
70322;SDS011;57735;56.264;43.898;2023-07-09T13:17:07;18.48;;;12.50;;
70322;SDS011;57735;56.264;43.898;2023-07-09T13:19:44;16.30;;;10.88;;
70322;SDS011;57735;56.264;43.898;2023-07-09T13:22:18;19.52;;;12.00;;
70322;SDS011;57735;56.264;43.898;2023-07-09T13:24:49;20.77;;;12.40;;
70322;SDS011;57735;56.264;43.898;2023-07-09T13:27:25;20.45;;;12.40;;
70322;SDS011;57735;56.264;43.898;2023-07-09T13:29:56;22.65;;;13.20;;
70322;SDS011;57735;56.264;43.898;2023-07-09T13:32:27;21.50;;;12.38;;
70322;SDS011;57735;56.264;43.898;2023-07-09T13:34:59;21.63;;;12.68;;
70322;SDS011;57735;56.264;43.898;2023-07-09T13:37:30;21.63;;;12.48;;
70322;SDS011;57735;56.264;43.898;2023-07-09T13:40:01;23.60;;;13.20;;
70322;SDS011;57735;56.264;43.898;2023-07-09T13:42:32;19.85;;;12.88;;
70322;SDS011;57735;56.264;43.898;2023-07-09T13:45:03;21.63;;;13.77;;
70322;SDS011;57735;56.264;43.898;2023-07-09T13:47:35;24.70;;;12.93;;
70322;SDS011;57735;56.264;43.898;2023-07-09T13:50:09;28.20;;;14.32;;
70322;SDS011;57735;56.264;43.898;2023-07-09T13:52:40;28.08;;;14.40;;
70322;SDS011;57735;56.264;43.898;2023-07-09T13:55:20;26.35;;;14.40;;
70322;SDS011;57735;56.264;43.898;2023-07-09T13:57:53;26.77;;;13.60;;
70322;SDS011;57735;56.264;43.898;2023-07-09T14:00:24;20.83;;;12.57;;
70322;SDS011;57735;56.264;43.898;2023-07-09T14:02:58;19.50;;;11.27;;
70322;SDS011;57735;56.264;43.898;2023-07-09T14:05:29;18.80;;;11.07;;
70322;SDS011;57735;56.264;43.898;2023-07-09T14:08:00;23.80;;;11.85;;
70322;SDS011;57735;56.264;43.898;2023-07-09T14:10:31;20.27;;;12.07;;
70322;SDS011;57735;56.264;43.898;2023-07-09T14:13:01;16.40;;;10.55;;
70322;SDS011;57735;56.264;43.898;2023-07-09T14:15:32;15.80;;;9.55;;
70322;SDS011;57735;56.264;43.898;2023-07-09T14:18:07;17.10;;;10.50;;
70322;SDS011;57735;56.264;43.898;2023-07-09T14:20:47;16.13;;;10.30;;
70322;SDS011;57735;56.264;43.898;2023-07-09T14:23:21;16.05;;;10.00;;
70322;SDS011;57735;56.264;43.898;2023-07-09T14:25:52;16.85;;;9.73;;
70322;SDS011;57735;56.264;43.898;2023-07-09T14:28:23;16.15;;;9.38;;
70322;SDS011;57735;56.264;43.898;2023-07-09T14:30:54;15.73;;;8.45;;
70322;SDS011;57735;56.264;43.898;2023-07-09T14:33:25;18.02;;;9.75;;
70322;SDS011;57735;56.264;43.898;2023-07-09T14:35:56;12.52;;;8.05;;
70322;SDS011;57735;56.264;43.898;2023-07-09T14:38:29;19.48;;;9.15;;
70322;SDS011;57735;56.264;43.898;2023-07-09T14:41:00;19.92;;;9.32;;
70322;SDS011;57735;56.264;43.898;2023-07-09T14:43:39;17.67;;;9.95;;
70322;SDS011;57735;56.264;43.898;2023-07-09T14:46:13;21.55;;;9.60;;
70322;SDS011;57735;56.264;43.898;2023-07-09T14:48:44;16.90;;;8.43;;
70322;SDS011;57735;56.264;43.898;2023-07-09T14:51:15;13.85;;;7.10;;
70322;SDS011;57735;56.264;43.898;2023-07-09T14:53:46;14.45;;;7.95;;
70322;SDS011;57735;56.264;43.898;2023-07-09T14:56:17;19.02;;;8.77;;
70322;SDS011;57735;56.264;43.898;2023-07-09T14:58:48;20.73;;;9.98;;
70322;SDS011;57735;56.264;43.898;2023-07-09T15:01:19;26.38;;;11.95;;
70322;SDS011;57735;56.264;43.898;2023-07-09T15:03:51;21.80;;;10.55;;
70322;SDS011;57735;56.264;43.898;2023-07-09T15:06:22;24.98;;;11.80;;
70322;SDS011;57735;56.264;43.898;2023-07-09T15:08:52;37.40;;;12.40;;
70322;SDS011;57735;56.264;43.898;2023-07-09T15:11:23;20.88;;;11.32;;
70322;SDS011;57735;56.264;43.898;2023-07-09T15:13:54;21.50;;;10.55;;
70322;SDS011;57735;56.264;43.898;2023-07-09T15:16:25;30.80;;;12.05;;
70322;SDS011;57735;56.264;43.898;2023-07-09T15:18:55;20.98;;;9.73;;
70322;SDS011;57735;56.264;43.898;2023-07-09T15:21:26;37.38;;;12.98;;
70322;SDS011;57735;56.264;43.898;2023-07-09T15:23:58;39.83;;;13.77;;
70322;SDS011;57735;56.264;43.898;2023-07-09T15:26:28;30.75;;;13.38;;
70322;SDS011;57735;56.264;43.898;2023-07-09T15:28:59;23.50;;;11.88;;
70322;SDS011;57735;56.264;43.898;2023-07-09T15:31:30;28.52;;;12.23;;
70322;SDS011;57735;56.264;43.898;2023-07-09T15:34:03;25.25;;;11.73;;